Colby, KS (67701)

6:32 PM CDT on August 30, 2015 (GMT -0500)
145 E Cherry - K0FJ | | Change Station
CLOSE
Current Station
Personal Weather Station
Location: Colby, KS
Elevation: 3150 ft
Nearby Weather Stations

Elev 3150 ft 39.39 °N, 101.05 °W | Updated 1 minute ago

Clear
Clear
89.5 °F
Feels Like 86 °F
N
9.0
Wind Variable Wind from SE
Gusts 9.0 mph

Today
High -- | Low -- °F
--% Chance of Precip.
Yesterday
High -- | Low -- °F
Precip. -- in
7:10 AM 8:18 PM
Full, 98% visible
Pressure 29.97 in
Visibility 10.0 miles
Clouds Clear
Heat Index 86 °F
Dew Point 36 °F
Humidity 15%
Rainfall 0.00 in
Snow Depth Not available.
UV 2 out of 12
Pollen 10.80 out of 12
Air Quality Not available.
Flu Activity Not available.
METAR KCBK 302315Z AUTO 17014G21KT 10SM CLR 33/06 A2997 RMK AO2
Pressure 29.97 in
Visibility 10.0 miles
Clouds Clear
Heat Index 86 °F
Dew Point 36 °F
Humidity 15%
Rainfall 0.00 in
Snow Depth Not available.
UV 2 out of 12
Pollen 10.80 out of 12
Air Quality Not available.
Flu Activity Not available.
METAR KCBK 302315Z AUTO 17014G21KT 10SM CLR 33/06 A2997 RMK AO2

10-Day Weather Forecast

×

Almanac

Astronomy

Aug. 30, 2015 Rise Set
Actual Time
Civil Twilight
Nautical Twilight
Astronomical Twilight
Moon
Length of Visible Light
Length of Day
Tomorrow will be .
, % of the Moon is Illuminated

Today's Extremes

State Highs State Lows

Community

WunderPhotos

Upload Photos

1,851,090 photos uploaded!

WunderBlogs® & News

Nearby

Air Quality

  Air Quality AQ Index Pollutant
Not available.

Snow Depth

Station Depth Elevation

Earthquake Activity

City Distance Mag. Time & Date
Minimum magnitude displayed is 2.5.

Coastal Water Temperatures

Place Temperature

Stations

Nearby Weather Stations

Station Location Temp. Windchill Dew Point Humidity Wind Precip. Elev Updated Type